sensor_id;sensor_type;location;lat;lon;timestamp;pressure;altitude;pressure_sealevel;temperature;humidity
34237;BME280;20501;45.956;13.632;2023-11-21T00:00:49;99983.91;;;11.17;83.69
34237;BME280;20501;45.956;13.632;2023-11-21T00:03:14;99985.25;;;11.21;83.35
34237;BME280;20501;45.956;13.632;2023-11-21T00:05:41;99987.06;;;11.12;83.25
34237;BME280;20501;45.956;13.632;2023-11-21T00:08:09;99985.56;;;11.18;83.82
34237;BME280;20501;45.956;13.632;2023-11-21T00:10:36;99982.03;;;11.17;83.18
34237;BME280;20501;45.956;13.632;2023-11-21T00:13:04;99973.69;;;11.10;83.45
34237;BME280;20501;45.956;13.632;2023-11-21T00:15:29;99977.09;;;11.12;84.82
34237;BME280;20501;45.956;13.632;2023-11-21T00:17:54;99970.22;;;11.18;84.99
34237;BME280;20501;45.956;13.632;2023-11-21T00:20:20;99958.69;;;10.90;86.63
34237;BME280;20501;45.956;13.632;2023-11-21T00:22:46;99958.56;;;10.73;87.85
34237;BME280;20501;45.956;13.632;2023-11-21T00:25:12;99964.34;;;10.78;89.58
34237;BME280;20501;45.956;13.632;2023-11-21T00:27:39;99953.84;;;10.75;90.55
34237;BME280;20501;45.956;13.632;2023-11-21T00:30:05;99946.91;;;10.73;89.72
34237;BME280;20501;45.956;13.632;2023-11-21T00:32:31;99937.84;;;10.82;88.82
34237;BME280;20501;45.956;13.632;2023-11-21T00:34:57;99934.94;;;10.75;90.87
34237;BME280;20501;45.956;13.632;2023-11-21T00:37:22;99936.09;;;10.73;90.93
34237;BME280;20501;45.956;13.632;2023-11-21T00:39:50;99932.56;;;10.72;90.82
34237;BME280;20501;45.956;13.632;2023-11-21T00:42:15;99921.59;;;10.74;90.36
34237;BME280;20501;45.956;13.632;2023-11-21T00:44:41;99917.25;;;10.81;89.64
34237;BME280;20501;45.956;13.632;2023-11-21T00:47:06;99913.53;;;10.82;90.05
34237;BME280;20501;45.956;13.632;2023-11-21T00:49:33;99905.59;;;10.80;90.83
34237;BME280;20501;45.956;13.632;2023-11-21T00:51:58;99904.66;;;10.90;90.92
34237;BME280;20501;45.956;13.632;2023-11-21T00:54:24;99907.50;;;10.88;90.63
34237;BME280;20501;45.956;13.632;2023-11-21T00:56:49;99905.38;;;10.74;90.88
34237;BME280;20501;45.956;13.632;2023-11-21T00:59:15;99906.69;;;10.69;90.46
34237;BME280;20501;45.956;13.632;2023-11-21T01:01:40;99910.47;;;10.77;89.32
34237;BME280;20501;45.956;13.632;2023-11-21T01:04:06;99908.56;;;10.95;88.66
34237;BME280;20501;45.956;13.632;2023-11-21T01:06:34;99911.06;;;10.89;89.16
34237;BME280;20501;45.956;13.632;2023-11-21T01:08:59;99903.16;;;10.95;88.68
34237;BME280;20501;45.956;13.632;2023-11-21T01:11:25;99906.13;;;10.84;88.99
34237;BME280;20501;45.956;13.632;2023-11-21T01:13:51;99900.97;;;10.73;88.90
34237;BME280;20501;45.956;13.632;2023-11-21T01:16:17;99899.81;;;10.75;89.50
34237;BME280;20501;45.956;13.632;2023-11-21T01:18:43;99897.50;;;10.80;90.00
34237;BME280;20501;45.956;13.632;2023-11-21T01:21:08;99895.09;;;10.77;88.81
34237;BME280;20501;45.956;13.632;2023-11-21T01:23:34;99890.34;;;10.71;88.69
34237;BME280;20501;45.956;13.632;2023-11-21T01:26:00;99894.88;;;10.71;89.16
34237;BME280;20501;45.956;13.632;2023-11-21T01:28:25;99899.44;;;10.70;89.59
34237;BME280;20501;45.956;13.632;2023-11-21T01:30:51;99889.56;;;10.79;88.85
34237;BME280;20501;45.956;13.632;2023-11-21T01:33:17;99887.38;;;10.82;88.96
34237;BME280;20501;45.956;13.632;2023-11-21T01:35:43;99884.50;;;10.84;88.16
34237;BME280;20501;45.956;13.632;2023-11-21T01:38:09;99876.44;;;10.92;88.12
34237;BME280;20501;45.956;13.632;2023-11-21T01:40:35;99877.00;;;10.96;87.77
34237;BME280;20501;45.956;13.632;2023-11-21T01:43:00;99876.56;;;11.09;87.57
34237;BME280;20501;45.956;13.632;2023-11-21T01:45:28;99867.38;;;11.02;87.51
34237;BME280;20501;45.956;13.632;2023-11-21T01:47:56;99854.91;;;11.01;87.97
34237;BME280;20501;45.956;13.632;2023-11-21T01:50:22;99846.50;;;10.86;88.07
34237;BME280;20501;45.956;13.632;2023-11-21T01:52:48;99839.47;;;10.93;89.19
34237;BME280;20501;45.956;13.632;2023-11-21T01:55:16;99851.84;;;11.04;89.26
34237;BME280;20501;45.956;13.632;2023-11-21T01:57:45;99836.97;;;10.99;89.01
34237;BME280;20501;45.956;13.632;2023-11-21T02:00:11;99837.34;;;11.05;89.93
34237;BME280;20501;45.956;13.632;2023-11-21T02:02:47;99837.72;;;11.10;90.15
34237;BME280;20501;45.956;13.632;2023-11-21T02:05:14;99829.53;;;11.02;90.20
34237;BME280;20501;45.956;13.632;2023-11-21T02:07:41;99838.69;;;11.01;90.90
34237;BME280;20501;45.956;13.632;2023-11-21T02:10:07;99830.38;;;10.94;92.99
34237;BME280;20501;45.956;13.632;2023-11-21T02:12:34;99835.97;;;11.01;94.10
34237;BME280;20501;45.956;13.632;2023-11-21T02:15:02;99835.03;;;10.83;96.45
34237;BME280;20501;45.956;13.632;2023-11-21T02:17:30;99829.16;;;10.88;96.90
34237;BME280;20501;45.956;13.632;2023-11-21T02:19:55;99823.50;;;11.08;97.01
34237;BME280;20501;45.956;13.632;2023-11-21T02:22:21;99826.47;;;11.31;94.60
34237;BME280;20501;45.956;13.632;2023-11-21T02:24:47;99820.22;;;11.30;94.50
34237;BME280;20501;45.956;13.632;2023-11-21T02:27:13;99813.63;;;11.33;94.31
34237;BME280;20501;45.956;13.632;2023-11-21T02:29:39;99808.72;;;11.37;93.70
34237;BME280;20501;45.956;13.632;2023-11-21T02:32:04;99821.72;;;11.25;91.69
34237;BME280;20501;45.956;13.632;2023-11-21T02:34:30;99813.59;;;11.17;89.49
34237;BME280;20501;45.956;13.632;2023-11-21T02:36:56;99817.09;;;11.09;88.60
34237;BME280;20501;45.956;13.632;2023-11-21T02:39:22;99827.22;;;11.07;87.61
34237;BME280;20501;45.956;13.632;2023-11-21T02:41:49;99831.09;;;11.04;87.38
34237;BME280;20501;45.956;13.632;2023-11-21T02:44:15;99821.59;;;11.00;87.51
34237;BME280;20501;45.956;13.632;2023-11-21T02:46:40;99827.03;;;11.08;86.54
34237;BME280;20501;45.956;13.632;2023-11-21T02:49:06;99818.63;;;11.11;86.56
34237;BME280;20501;45.956;13.632;2023-11-21T02:51:32;99817.81;;;11.19;86.28
34237;BME280;20501;45.956;13.632;2023-11-21T02:53:58;99822.41;;;11.27;85.91
34237;BME280;20501;45.956;13.632;2023-11-21T02:56:26;99819.28;;;11.05;86.58
34237;BME280;20501;45.956;13.632;2023-11-21T02:58:55;99824.31;;;11.00;87.17
34237;BME280;20501;45.956;13.632;2023-11-21T03:01:21;99826.38;;;11.06;87.26
34237;BME280;20501;45.956;13.632;2023-11-21T03:03:46;99820.81;;;11.08;86.66
34237;BME280;20501;45.956;13.632;2023-11-21T03:06:19;99812.97;;;10.96;86.91
34237;BME280;20501;45.956;13.632;2023-11-21T03:08:45;99807.59;;;11.05;86.43
34237;BME280;20501;45.956;13.632;2023-11-21T03:11:11;99794.38;;;10.93;86.74
34237;BME280;20501;45.956;13.632;2023-11-21T03:13:39;99783.22;;;10.88;87.59
34237;BME280;20501;45.956;13.632;2023-11-21T03:16:05;99784.97;;;11.06;87.54
34237;BME280;20501;45.956;13.632;2023-11-21T03:18:31;99784.78;;;10.99;88.76
34237;BME280;20501;45.956;13.632;2023-11-21T03:20:57;99781.09;;;11.08;89.30
34237;BME280;20501;45.956;13.632;2023-11-21T03:23:22;99773.66;;;11.10;88.82
34237;BME280;20501;45.956;13.632;2023-11-21T03:25:47;99775.84;;;11.07;89.23
34237;BME280;20501;45.956;13.632;2023-11-21T03:28:13;99766.22;;;11.04;89.83
34237;BME280;20501;45.956;13.632;2023-11-21T03:30:38;99753.41;;;11.14;89.73
34237;BME280;20501;45.956;13.632;2023-11-21T03:33:05;99755.44;;;11.12;87.72
34237;BME280;20501;45.956;13.632;2023-11-21T03:35:30;99754.41;;;11.05;87.60
34237;BME280;20501;45.956;13.632;2023-11-21T03:37:56;99754.75;;;11.10;87.14
34237;BME280;20501;45.956;13.632;2023-11-21T03:40:22;99763.16;;;11.07;86.96
34237;BME280;20501;45.956;13.632;2023-11-21T03:42:47;99767.44;;;11.10;87.30
34237;BME280;20501;45.956;13.632;2023-11-21T03:45:13;99766.06;;;11.14;87.26
34237;BME280;20501;45.956;13.632;2023-11-21T03:47:42;99760.84;;;11.12;87.35
34237;BME280;20501;45.956;13.632;2023-11-21T03:50:08;99758.44;;;11.01;87.56
34237;BME280;20501;45.956;13.632;2023-11-21T03:52:37;99753.53;;;11.05;87.62
34237;BME280;20501;45.956;13.632;2023-11-21T03:55:02;99758.22;;;10.86;87.83
34237;BME280;20501;45.956;13.632;2023-11-21T03:57:28;99761.97;;;11.02;87.03
34237;BME280;20501;45.956;13.632;2023-11-21T03:59:53;99759.63;;;10.98;87.05
34237;BME280;20501;45.956;13.632;2023-11-21T04:02:19;99763.28;;;10.89;86.97
34237;BME280;20501;45.956;13.632;2023-11-21T04:04:45;99759.25;;;10.93;87.08
34237;BME280;20501;45.956;13.632;2023-11-21T04:07:10;99773.56;;;10.86;86.88
34237;BME280;20501;45.956;13.632;2023-11-21T04:09:36;99762.09;;;10.83;87.02
34237;BME280;20501;45.956;13.632;2023-11-21T04:12:02;99771.22;;;10.91;87.12
34237;BME280;20501;45.956;13.632;2023-11-21T04:14:27;99773.94;;;10.91;87.68
34237;BME280;20501;45.956;13.632;2023-11-21T04:16:53;99770.84;;;10.86;87.70
34237;BME280;20501;45.956;13.632;2023-11-21T04:19:19;99771.03;;;10.84;88.13
34237;BME280;20501;45.956;13.632;2023-11-21T04:21:44;99777.09;;;10.78;88.53
34237;BME280;20501;45.956;13.632;2023-11-21T04:24:10;99763.78;;;10.84;88.00
34237;BME280;20501;45.956;13.632;2023-11-21T04:26:35;99768.06;;;11.04;87.60
34237;BME280;20501;45.956;13.632;2023-11-21T04:29:01;99764.53;;;11.03;87.91
34237;BME280;20501;45.956;13.632;2023-11-21T04:31:26;99763.00;;;11.01;87.82
34237;BME280;20501;45.956;13.632;2023-11-21T04:33:52;99773.88;;;11.17;87.27
34237;BME280;20501;45.956;13.632;2023-11-21T04:36:17;99773.19;;;11.15;86.43
34237;BME280;20501;45.956;13.632;2023-11-21T04:38:43;99768.13;;;11.12;87.13
34237;BME280;20501;45.956;13.632;2023-11-21T04:41:11;99762.53;;;11.13;86.87
34237;BME280;20501;45.956;13.632;2023-11-21T04:43:37;99761.88;;;11.20;87.33
34237;BME280;20501;45.956;13.632;2023-11-21T04:46:02;99768.13;;;11.12;87.49
34237;BME280;20501;45.956;13.632;2023-11-21T04:48:28;99767.16;;;11.29;87.58
34237;BME280;20501;45.956;13.632;2023-11-21T04:50:53;99762.75;;;11.28;87.31
34237;BME280;20501;45.956;13.632;2023-11-21T04:53:19;99769.47;;;11.24;86.88
34237;BME280;20501;45.956;13.632;2023-11-21T04:55:45;99767.78;;;11.23;87.30
34237;BME280;20501;45.956;13.632;2023-11-21T04:58:11;99765.97;;;11.32;87.17
34237;BME280;20501;45.956;13.632;2023-11-21T05:00:37;99759.53;;;11.33;87.71
34237;BME280;20501;45.956;13.632;2023-11-21T05:03:03;99759.41;;;11.43;87.08
34237;BME280;20501;45.956;13.632;2023-11-21T05:05:29;99757.47;;;11.19;88.04
34237;BME280;20501;45.956;13.632;2023-11-21T05:07:55;99760.84;;;11.12;87.66
34237;BME280;20501;45.956;13.632;2023-11-21T05:10:20;99756.97;;;11.15;87.56
34237;BME280;20501;45.956;13.632;2023-11-21T05:12:47;99760.66;;;11.14;87.51
34237;BME280;20501;45.956;13.632;2023-11-21T05:15:14;99763.06;;;11.25;88.18
34237;BME280;20501;45.956;13.632;2023-11-21T05:17:41;99764.91;;;11.17;88.14
34237;BME280;20501;45.956;13.632;2023-11-21T05:20:10;99765.50;;;10.94;89.50
34237;BME280;20501;45.956;13.632;2023-11-21T05:22:37;99765.06;;;10.72;91.21
34237;BME280;20501;45.956;13.632;2023-11-21T05:25:03;99768.63;;;10.81;93.83
34237;BME280;20501;45.956;13.632;2023-11-21T05:27:29;99766.13;;;10.88;94.70
34237;BME280;20501;45.956;13.632;2023-11-21T05:29:58;99770.22;;;10.92;95.20
34237;BME280;20501;45.956;13.632;2023-11-21T05:32:24;99775.59;;;10.83;95.93
34237;BME280;20501;45.956;13.632;2023-11-21T05:34:50;99768.84;;;10.88;96.03
34237;BME280;20501;45.956;13.632;2023-11-21T05:37:15;99776.41;;;10.76;98.24
34237;BME280;20501;45.956;13.632;2023-11-21T05:39:40;99784.66;;;10.48;99.47
34237;BME280;20501;45.956;13.632;2023-11-21T05:42:06;99785.56;;;10.57;100.00
34237;BME280;20501;45.956;13.632;2023-11-21T05:44:31;99785.00;;;10.71;100.00
34237;BME280;20501;45.956;13.632;2023-11-21T05:46:57;99785.47;;;10.66;100.00
34237;BME280;20501;45.956;13.632;2023-11-21T05:49:24;99787.38;;;10.74;100.00
34237;BME280;20501;45.956;13.632;2023-11-21T05:51:52;99791.94;;;10.82;100.00
34237;BME280;20501;45.956;13.632;2023-11-21T05:54:19;99794.63;;;10.74;100.00
34237;BME280;20501;45.956;13.632;2023-11-21T05:56:44;99800.97;;;10.64;100.00
34237;BME280;20501;45.956;13.632;2023-11-21T05:59:10;99798.63;;;10.69;100.00
34237;BME280;20501;45.956;13.632;2023-11-21T06:01:35;99803.03;;;10.71;100.00
34237;BME280;20501;45.956;13.632;2023-11-21T06:04:03;99796.84;;;10.78;100.00
34237;BME280;20501;45.956;13.632;2023-11-21T06:06:29;99788.09;;;10.84;100.00
34237;BME280;20501;45.956;13.632;2023-11-21T06:08:54;99791.09;;;10.73;100.00
34237;BME280;20501;45.956;13.632;2023-11-21T06:11:20;99794.31;;;10.77;100.00
34237;BME280;20501;45.956;13.632;2023-11-21T06:13:46;99793.06;;;10.63;100.00
34237;BME280;20501;45.956;13.632;2023-11-21T06:16:13;99795.63;;;10.73;100.00
34237;BME280;20501;45.956;13.632;2023-11-21T06:18:41;99793.97;;;10.80;100.00
34237;BME280;20501;45.956;13.632;2023-11-21T06:21:09;99795.31;;;10.76;100.00
34237;BME280;20501;45.956;13.632;2023-11-21T06:23:35;99794.16;;;10.87;100.00
34237;BME280;20501;45.956;13.632;2023-11-21T06:26:01;99795.25;;;10.94;100.00
34237;BME280;20501;45.956;13.632;2023-11-21T06:28:26;99792.38;;;10.95;100.00
34237;BME280;20501;45.956;13.632;2023-11-21T06:30:51;99794.84;;;10.89;100.00
34237;BME280;20501;45.956;13.632;2023-11-21T06:33:18;99796.56;;;10.90;100.00
34237;BME280;20501;45.956;13.632;2023-11-21T06:35:44;99801.88;;;10.73;100.00
34237;BME280;20501;45.956;13.632;2023-11-21T06:38:10;99804.03;;;10.69;100.00
34237;BME280;20501;45.956;13.632;2023-11-21T06:40:35;99804.59;;;10.73;100.00
34237;BME280;20501;45.956;13.632;2023-11-21T06:43:01;99795.53;;;10.82;100.00
34237;BME280;20501;45.956;13.632;2023-11-21T06:45:26;99798.47;;;10.97;100.00
34237;BME280;20501;45.956;13.632;2023-11-21T06:47:52;99792.84;;;10.91;99.93
34237;BME280;20501;45.956;13.632;2023-11-21T06:50:17;99799.22;;;10.81;100.00
34237;BME280;20501;45.956;13.632;2023-11-21T06:52:43;99794.03;;;10.88;97.69
34237;BME280;20501;45.956;13.632;2023-11-21T06:55:10;99794.75;;;10.98;99.43
34237;BME280;20501;45.956;13.632;2023-11-21T06:57:36;99797.94;;;10.94;100.00
34237;BME280;20501;45.956;13.632;2023-11-21T07:00:02;99796.16;;;11.11;94.73
34237;BME280;20501;45.956;13.632;2023-11-21T07:02:27;99794.13;;;11.13;91.45
34237;BME280;20501;45.956;13.632;2023-11-21T07:04:54;99807.97;;;11.10;93.87
34237;BME280;20501;45.956;13.632;2023-11-21T07:07:19;99811.16;;;11.05;95.69
34237;BME280;20501;45.956;13.632;2023-11-21T07:09:45;99799.69;;;11.11;90.46
34237;BME280;20501;45.956;13.632;2023-11-21T07:12:10;99804.59;;;11.16;88.13
34237;BME280;20501;45.956;13.632;2023-11-21T07:14:36;99816.31;;;11.25;86.99
34237;BME280;20501;45.956;13.632;2023-11-21T07:17:04;99810.41;;;11.29;85.38
34237;BME280;20501;45.956;13.632;2023-11-21T07:19:29;99803.19;;;11.38;82.16
34237;BME280;20501;45.956;13.632;2023-11-21T07:21:56;99792.50;;;11.37;83.58
34237;BME280;20501;45.956;13.632;2023-11-21T07:24:21;99791.31;;;11.39;85.74
34237;BME280;20501;45.956;13.632;2023-11-21T07:26:48;99813.63;;;11.33;87.85
34237;BME280;20501;45.956;13.632;2023-11-21T07:29:13;99799.78;;;11.36;84.99
34237;BME280;20501;45.956;13.632;2023-11-21T07:31:39;99810.94;;;11.41;83.82
34237;BME280;20501;45.956;13.632;2023-11-21T07:34:06;99806.59;;;11.49;84.49
34237;BME280;20501;45.956;13.632;2023-11-21T07:36:33;99818.41;;;11.48;84.58
34237;BME280;20501;45.956;13.632;2023-11-21T07:38:58;99808.28;;;11.50;82.47
34237;BME280;20501;45.956;13.632;2023-11-21T07:41:24;99814.91;;;11.55;81.70
34237;BME280;20501;45.956;13.632;2023-11-21T07:43:49;99814.22;;;11.78;80.60
34237;BME280;20501;45.956;13.632;2023-11-21T07:46:15;99805.72;;;11.56;84.01
34237;BME280;20501;45.956;13.632;2023-11-21T07:48:41;99801.91;;;11.75;77.17
34237;BME280;20501;45.956;13.632;2023-11-21T07:51:07;99806.16;;;11.86;81.94
34237;BME280;20501;45.956;13.632;2023-11-21T07:53:33;99807.66;;;11.81;82.95
34237;BME280;20501;45.956;13.632;2023-11-21T07:56:04;99807.84;;;11.87;78.50
34237;BME280;20501;45.956;13.632;2023-11-21T07:58:30;99808.50;;;11.81;77.11
34237;BME280;20501;45.956;13.632;2023-11-21T08:00:56;99806.47;;;11.91;78.54
34237;BME280;20501;45.956;13.632;2023-11-21T08:03:21;99797.84;;;11.96;76.58
34237;BME280;20501;45.956;13.632;2023-11-21T08:05:47;99802.78;;;12.01;76.84
34237;BME280;20501;45.956;13.632;2023-11-21T08:08:12;99799.56;;;12.05;74.39
34237;BME280;20501;45.956;13.632;2023-11-21T08:10:38;99785.19;;;12.13;73.79
34237;BME280;20501;45.956;13.632;2023-11-21T08:13:07;99792.81;;;12.18;78.15
34237;BME280;20501;45.956;13.632;2023-11-21T08:15:34;99786.19;;;12.20;75.87
34237;BME280;20501;45.956;13.632;2023-11-21T08:18:02;99782.66;;;12.20;77.09
34237;BME280;20501;45.956;13.632;2023-11-21T08:20:27;99781.81;;;12.28;74.83
34237;BME280;20501;45.956;13.632;2023-11-21T08:22:53;99776.22;;;12.29;75.74
34237;BME280;20501;45.956;13.632;2023-11-21T08:25:20;99789.41;;;12.41;70.96
34237;BME280;20501;45.956;13.632;2023-11-21T08:27:46;99789.59;;;12.39;74.08
34237;BME280;20501;45.956;13.632;2023-11-21T08:30:12;99796.84;;;12.38;77.74
34237;BME280;20501;45.956;13.632;2023-11-21T08:32:39;99794.50;;;12.27;78.71
34237;BME280;20501;45.956;13.632;2023-11-21T08:35:04;99787.03;;;12.37;73.71
34237;BME280;20501;45.956;13.632;2023-11-21T08:37:31;99791.25;;;12.48;77.43
34237;BME280;20501;45.956;13.632;2023-11-21T08:39:58;99783.31;;;12.47;71.49
34237;BME280;20501;45.956;13.632;2023-11-21T08:42:24;99793.13;;;12.39;75.65
34237;BME280;20501;45.956;13.632;2023-11-21T08:44:50;99791.28;;;12.40;69.65
34237;BME280;20501;45.956;13.632;2023-11-21T08:47:16;99785.00;;;12.39;71.19
34237;BME280;20501;45.956;13.632;2023-11-21T08:49:41;99782.47;;;12.38;70.34
34237;BME280;20501;45.956;13.632;2023-11-21T08:52:07;99780.94;;;12.44;69.88
34237;BME280;20501;45.956;13.632;2023-11-21T08:54:33;99776.53;;;12.51;67.82
34237;BME280;20501;45.956;13.632;2023-11-21T08:56:59;99780.25;;;12.50;69.72
34237;BME280;20501;45.956;13.632;2023-11-21T08:59:25;99785.50;;;12.51;70.67
34237;BME280;20501;45.956;13.632;2023-11-21T09:01:51;99797.69;;;12.47;70.26
34237;BME280;20501;45.956;13.632;2023-11-21T09:04:17;99789.41;;;12.57;69.96
34237;BME280;20501;45.956;13.632;2023-11-21T09:06:42;99803.28;;;12.54;68.50
34237;BME280;20501;45.956;13.632;2023-11-21T09:09:08;99786.50;;;12.59;69.10
34237;BME280;20501;45.956;13.632;2023-11-21T09:11:36;99786.31;;;12.60;68.15
34237;BME280;20501;45.956;13.632;2023-11-21T09:14:02;99789.03;;;12.60;70.99
34237;BME280;20501;45.956;13.632;2023-11-21T09:16:28;99801.91;;;12.66;70.12
34237;BME280;20501;45.956;13.632;2023-11-21T09:18:53;99811.22;;;12.56;73.11
34237;BME280;20501;45.956;13.632;2023-11-21T09:21:19;99802.06;;;12.57;70.42
34237;BME280;20501;45.956;13.632;2023-11-21T09:23:44;99801.25;;;12.56;71.26
34237;BME280;20501;45.956;13.632;2023-11-21T09:26:10;99802.94;;;12.57;74.12
34237;BME280;20501;45.956;13.632;2023-11-21T09:28:35;99804.59;;;12.58;69.59
34237;BME280;20501;45.956;13.632;2023-11-21T09:31:04;99801.91;;;12.66;69.55
34237;BME280;20501;45.956;13.632;2023-11-21T09:33:29;99807.16;;;12.60;73.71
34237;BME280;20501;45.956;13.632;2023-11-21T09:35:56;99799.19;;;12.58;74.68
34237;BME280;20501;45.956;13.632;2023-11-21T09:38:22;99797.00;;;12.53;76.62
34237;BME280;20501;45.956;13.632;2023-11-21T09:40:47;99790.41;;;12.56;78.72
34237;BME280;20501;45.956;13.632;2023-11-21T09:43:16;99793.63;;;12.60;78.33
34237;BME280;20501;45.956;13.632;2023-11-21T09:45:51;99794.16;;;12.47;80.38
34237;BME280;20501;45.956;13.632;2023-11-21T09:48:20;99788.63;;;12.80;69.53
34237;BME280;20501;45.956;13.632;2023-11-21T09:50:47;99781.13;;;12.98;67.13
34237;BME280;20501;45.956;13.632;2023-11-21T09:53:20;99773.97;;;13.06;67.98
34237;BME280;20501;45.956;13.632;2023-11-21T09:55:52;99783.91;;;13.22;65.91
34237;BME280;20501;45.956;13.632;2023-11-21T09:58:19;99790.44;;;13.44;67.26
34237;BME280;20501;45.956;13.632;2023-11-21T10:00:46;99785.13;;;13.51;66.16
34237;BME280;20501;45.956;13.632;2023-11-21T10:03:13;99781.38;;;13.52;66.89
34237;BME280;20501;45.956;13.632;2023-11-21T10:05:40;99782.53;;;13.57;67.44
34237;BME280;20501;45.956;13.632;2023-11-21T10:08:08;99783.50;;;13.41;65.79
34237;BME280;20501;45.956;13.632;2023-11-21T10:10:35;99785.19;;;13.42;65.68
34237;BME280;20501;45.956;13.632;2023-11-21T10:13:04;99782.59;;;13.49;65.38
34237;BME280;20501;45.956;13.632;2023-11-21T10:15:33;99776.38;;;13.32;64.80
34237;BME280;20501;45.956;13.632;2023-11-21T10:18:02;99786.97;;;13.19;63.92
34237;BME280;20501;45.956;13.632;2023-11-21T10:20:28;99806.22;;;13.00;66.60
34237;BME280;20501;45.956;13.632;2023-11-21T10:22:54;99809.41;;;13.04;65.23
34237;BME280;20501;45.956;13.632;2023-11-21T10:25:22;99787.34;;;13.07;66.52
34237;BME280;20501;45.956;13.632;2023-11-21T10:27:49;99784.16;;;13.04;63.81
34237;BME280;20501;45.956;13.632;2023-11-21T10:30:17;99788.06;;;13.01;63.74
34237;BME280;20501;45.956;13.632;2023-11-21T10:32:43;99805.16;;;13.01;65.67
34237;BME280;20501;45.956;13.632;2023-11-21T10:35:09;99786.72;;;12.97;63.76
34237;BME280;20501;45.956;13.632;2023-11-21T10:37:38;99783.72;;;12.83;65.77
34237;BME280;20501;45.956;13.632;2023-11-21T10:40:09;99765.78;;;12.74;65.43
34237;BME280;20501;45.956;13.632;2023-11-21T10:42:39;99789.50;;;12.80;66.32
34237;BME280;20501;45.956;13.632;2023-11-21T10:45:06;99788.13;;;12.76;65.93
34237;BME280;20501;45.956;13.632;2023-11-21T10:47:41;99792.56;;;12.69;65.69
34237;BME280;20501;45.956;13.632;2023-11-21T10:50:08;99806.13;;;12.69;66.88
34237;BME280;20501;45.956;13.632;2023-11-21T10:52:42;99782.25;;;12.64;65.66
34237;BME280;20501;45.956;13.632;2023-11-21T10:55:19;99798.00;;;12.61;64.17
34237;BME280;20501;45.956;13.632;2023-11-21T10:57:52;99801.22;;;12.64;65.25
34237;BME280;20501;45.956;13.632;2023-11-21T11:00:18;99790.03;;;12.59;65.04
34237;BME280;20501;45.956;13.632;2023-11-21T11:02:46;99799.19;;;12.58;65.43
34237;BME280;20501;45.956;13.632;2023-11-21T11:05:15;99807.50;;;12.57;66.04
34237;BME280;20501;45.956;13.632;2023-11-21T11:07:44;99790.75;;;12.53;64.59
34237;BME280;20501;45.956;13.632;2023-11-21T11:10:13;99778.03;;;12.62;63.96
34237;BME280;20501;45.956;13.632;2023-11-21T11:12:41;99776.19;;;12.54;64.77
34237;BME280;20501;45.956;13.632;2023-11-21T11:15:08;99774.66;;;12.60;64.02
34237;BME280;20501;45.956;13.632;2023-11-21T11:17:36;99778.38;;;12.59;64.48
34237;BME280;20501;45.956;13.632;2023-11-21T11:20:05;99766.19;;;12.63;62.57
34237;BME280;20501;45.956;13.632;2023-11-21T11:22:44;99771.75;;;12.61;64.11
34237;BME280;20501;45.956;13.632;2023-11-21T11:25:35;99775.47;;;12.60;64.04
34237;BME280;20501;45.956;13.632;2023-11-21T11:34:29;99775.28;;;12.70;63.52
34237;BME280;20501;45.956;13.632;2023-11-21T11:37:00;99762.75;;;12.69;63.69
34237;BME280;20501;45.956;13.632;2023-11-21T11:39:32;99760.34;;;12.74;63.47
34237;BME280;20501;45.956;13.632;2023-11-21T11:42:03;99764.59;;;12.77;66.16
34237;BME280;20501;45.956;13.632;2023-11-21T11:47:27;99745.66;;;12.68;66.50
34237;BME280;20501;45.956;13.632;2023-11-21T11:50:01;99752.91;;;12.76;64.94
34237;BME280;20501;45.956;13.632;2023-11-21T11:52:48;99744.09;;;12.74;64.70
34237;BME280;20501;45.956;13.632;2023-11-21T11:55:16;99735.13;;;12.74;63.22
34237;BME280;20501;45.956;13.632;2023-11-21T11:57:49;99729.88;;;12.80;63.57
34237;BME280;20501;45.956;13.632;2023-11-21T12:00:21;99704.59;;;12.88;64.92
34237;BME280;20501;45.956;13.632;2023-11-21T12:02:54;99733.50;;;12.96;63.42
34237;BME280;20501;45.956;13.632;2023-11-21T12:05:22;99724.41;;;12.89;61.95
34237;BME280;20501;45.956;13.632;2023-11-21T12:07:55;99720.72;;;12.81;61.94
34237;BME280;20501;45.956;13.632;2023-11-21T12:10:32;99720.88;;;12.80;62.80
34237;BME280;20501;45.956;13.632;2023-11-21T12:13:02;99710.88;;;12.80;61.11
34237;BME280;20501;45.956;13.632;2023-11-21T12:15:30;99719.78;;;12.97;67.33
34237;BME280;20501;45.956;13.632;2023-11-21T12:17:56;99709.00;;;12.89;63.20
34237;BME280;20501;45.956;13.632;2023-11-21T12:20:24;99721.66;;;12.97;65.43
34237;BME280;20501;45.956;13.632;2023-11-21T12:22:54;99705.75;;;12.94;64.37
34237;BME280;20501;45.956;13.632;2023-11-21T12:25:22;99721.25;;;12.77;62.32
34237;BME280;20501;45.956;13.632;2023-11-21T12:27:50;99715.78;;;12.85;63.44
34237;BME280;20501;45.956;13.632;2023-11-21T12:30:20;99698.50;;;12.86;62.75
34237;BME280;20501;45.956;13.632;2023-11-21T12:32:55;99714.75;;;12.86;62.95
34237;BME280;20501;45.956;13.632;2023-11-21T12:35:28;99709.34;;;12.86;61.68
34237;BME280;20501;45.956;13.632;2023-11-21T12:37:57;99714.94;;;12.84;62.26
34237;BME280;20501;45.956;13.632;2023-11-21T12:40:23;99713.06;;;12.85;62.51
34237;BME280;20501;45.956;13.632;2023-11-21T12:42:51;99721.41;;;12.75;60.64
34237;BME280;20501;45.956;13.632;2023-11-21T12:45:28;99697.53;;;12.79;62.51
34237;BME280;20501;45.956;13.632;2023-11-21T12:48:00;99729.53;;;12.83;62.83
34237;BME280;20501;45.956;13.632;2023-11-21T12:50:27;99710.56;;;12.75;62.25
34237;BME280;20501;45.956;13.632;2023-11-21T12:53:03;99697.72;;;12.69;60.95
34237;BME280;20501;45.956;13.632;2023-11-21T12:55:31;99713.84;;;12.62;62.08
34237;BME280;20501;45.956;13.632;2023-11-21T12:57:56;99723.13;;;12.68;60.35